sensor_id;sensor_type;location;lat;lon;timestamp;pressure;altitude;pressure_sealevel;temperature
67353;BMP180;54238;52.278;21.056;2024-03-02T00:01:17;100149.00;;;8.46
67353;BMP180;54238;52.278;21.056;2024-03-02T00:03:46;100143.60;;;8.40
67353;BMP180;54238;52.278;21.056;2024-03-02T00:06:16;100148.40;;;8.40
67353;BMP180;54238;52.278;21.056;2024-03-02T00:08:48;100152.80;;;8.40
67353;BMP180;54238;52.278;21.056;2024-03-02T00:11:17;100149.80;;;8.40
67353;BMP180;54238;52.278;21.056;2024-03-02T00:13:53;100149.00;;;8.40
67353;BMP180;54238;52.278;21.056;2024-03-02T00:16:20;100139.00;;;8.30
67353;BMP180;54238;52.278;21.056;2024-03-02T00:18:50;100141.20;;;8.30
67353;BMP180;54238;52.278;21.056;2024-03-02T00:21:20;100139.00;;;8.30
67353;BMP180;54238;52.278;21.056;2024-03-02T00:23:51;100132.80;;;8.28
67353;BMP180;54238;52.278;21.056;2024-03-02T00:26:22;100140.60;;;8.20
67353;BMP180;54238;52.278;21.056;2024-03-02T00:28:49;100134.00;;;8.20
67353;BMP180;54238;52.278;21.056;2024-03-02T00:31:23;100138.20;;;8.20
67353;BMP180;54238;52.278;21.056;2024-03-02T00:33:51;100138.20;;;8.20
67353;BMP180;54238;52.278;21.056;2024-03-02T00:36:28;100130.20;;;8.20
67353;BMP180;54238;52.278;21.056;2024-03-02T00:38:58;100127.00;;;8.10
67353;BMP180;54238;52.278;21.056;2024-03-02T00:41:31;100128.20;;;8.10
67353;BMP180;54238;52.278;21.056;2024-03-02T00:44:10;100127.60;;;8.10
67353;BMP180;54238;52.278;21.056;2024-03-02T00:46:42;100127.20;;;8.10
67353;BMP180;54238;52.278;21.056;2024-03-02T00:49:23;100121.20;;;8.00
67353;BMP180;54238;52.278;21.056;2024-03-02T00:51:54;100122.40;;;8.00
67353;BMP180;54238;52.278;21.056;2024-03-02T00:54:23;100133.40;;;8.00
67353;BMP180;54238;52.278;21.056;2024-03-02T00:56:57;100134.40;;;8.00
67353;BMP180;54238;52.278;21.056;2024-03-02T00:59:27;100135.00;;;8.00
67353;BMP180;54238;52.278;21.056;2024-03-02T01:01:54;100136.40;;;8.00
67353;BMP180;54238;52.278;21.056;2024-03-02T01:04:21;100134.00;;;8.00
67353;BMP180;54238;52.278;21.056;2024-03-02T01:06:48;100133.00;;;7.90
67353;BMP180;54238;52.278;21.056;2024-03-02T01:09:16;100128.80;;;7.90
67353;BMP180;54238;52.278;21.056;2024-03-02T01:11:44;100128.40;;;7.90
67353;BMP180;54238;52.278;21.056;2024-03-02T01:14:11;100129.20;;;7.90
67353;BMP180;54238;52.278;21.056;2024-03-02T01:16:43;100126.40;;;7.90
67353;BMP180;54238;52.278;21.056;2024-03-02T01:19:10;100120.40;;;7.90
67353;BMP180;54238;52.278;21.056;2024-03-02T01:21:39;100117.80;;;7.90
67353;BMP180;54238;52.278;21.056;2024-03-02T01:24:13;100121.20;;;7.86
67353;BMP180;54238;52.278;21.056;2024-03-02T01:26:40;100122.20;;;7.80
67353;BMP180;54238;52.278;21.056;2024-03-02T01:29:07;100121.40;;;7.80
67353;BMP180;54238;52.278;21.056;2024-03-02T01:31:38;100120.00;;;7.80
67353;BMP180;54238;52.278;21.056;2024-03-02T01:34:09;100119.60;;;7.80
67353;BMP180;54238;52.278;21.056;2024-03-02T01:36:36;100115.00;;;7.80
67353;BMP180;54238;52.278;21.056;2024-03-02T01:39:03;100110.40;;;7.80
67353;BMP180;54238;52.278;21.056;2024-03-02T01:41:30;100110.20;;;7.70
67353;BMP180;54238;52.278;21.056;2024-03-02T01:43:57;100105.80;;;7.70
67353;BMP180;54238;52.278;21.056;2024-03-02T01:46:24;100101.00;;;7.70
67353;BMP180;54238;52.278;21.056;2024-03-02T01:48:55;100097.60;;;7.70
67353;BMP180;54238;52.278;21.056;2024-03-02T01:51:25;100096.40;;;7.60
67353;BMP180;54238;52.278;21.056;2024-03-02T01:53:52;100102.80;;;7.60
67353;BMP180;54238;52.278;21.056;2024-03-02T01:56:22;100108.20;;;7.60
67353;BMP180;54238;52.278;21.056;2024-03-02T01:58:49;100103.20;;;7.60
67353;BMP180;54238;52.278;21.056;2024-03-02T02:01:18;100101.00;;;7.60
67353;BMP180;54238;52.278;21.056;2024-03-02T02:03:45;100103.80;;;7.60
67353;BMP180;54238;52.278;21.056;2024-03-02T02:06:15;100099.00;;;7.60
67353;BMP180;54238;52.278;21.056;2024-03-02T02:08:44;100100.20;;;7.60
67353;BMP180;54238;52.278;21.056;2024-03-02T02:11:19;100103.00;;;7.60
67353;BMP180;54238;52.278;21.056;2024-03-02T02:13:51;100097.40;;;7.60
67353;BMP180;54238;52.278;21.056;2024-03-02T02:16:22;100096.20;;;7.50
67353;BMP180;54238;52.278;21.056;2024-03-02T02:18:51;100099.00;;;7.50
67353;BMP180;54238;52.278;21.056;2024-03-02T02:21:25;100098.60;;;7.50
67353;BMP180;54238;52.278;21.056;2024-03-02T02:23:56;100092.80;;;7.50
67353;BMP180;54238;52.278;21.056;2024-03-02T02:26:23;100087.20;;;7.50
67353;BMP180;54238;52.278;21.056;2024-03-02T02:28:50;100081.40;;;7.40
67353;BMP180;54238;52.278;21.056;2024-03-02T02:31:19;100085.80;;;7.40
67353;BMP180;54238;52.278;21.056;2024-03-02T02:33:46;100083.20;;;7.40
67353;BMP180;54238;52.278;21.056;2024-03-02T02:36:18;100081.00;;;7.40
67353;BMP180;54238;52.278;21.056;2024-03-02T02:38:48;100084.20;;;7.40
67353;BMP180;54238;52.278;21.056;2024-03-02T02:41:15;100087.60;;;7.40
67353;BMP180;54238;52.278;21.056;2024-03-02T02:43:47;100083.80;;;7.40
67353;BMP180;54238;52.278;21.056;2024-03-02T02:46:14;100087.00;;;7.40
67353;BMP180;54238;52.278;21.056;2024-03-02T02:48:43;100083.00;;;7.38
67353;BMP180;54238;52.278;21.056;2024-03-02T02:51:12;100084.00;;;7.38
67353;BMP180;54238;52.278;21.056;2024-03-02T02:53:39;100081.20;;;7.30
67353;BMP180;54238;52.278;21.056;2024-03-02T02:56:09;100078.00;;;7.30
67353;BMP180;54238;52.278;21.056;2024-03-02T02:58:36;100073.00;;;7.30
67353;BMP180;54238;52.278;21.056;2024-03-02T03:01:06;100069.80;;;7.28
67353;BMP180;54238;52.278;21.056;2024-03-02T03:03:38;100069.20;;;7.20
67353;BMP180;54238;52.278;21.056;2024-03-02T03:06:10;100069.60;;;7.20
67353;BMP180;54238;52.278;21.056;2024-03-02T03:08:40;100071.00;;;7.20
67353;BMP180;54238;52.278;21.056;2024-03-02T03:11:07;100065.80;;;7.20
67353;BMP180;54238;52.278;21.056;2024-03-02T03:13:39;100063.80;;;7.20
67353;BMP180;54238;52.278;21.056;2024-03-02T03:16:08;100060.80;;;7.10
67353;BMP180;54238;52.278;21.056;2024-03-02T03:18:38;100058.20;;;7.10
67353;BMP180;54238;52.278;21.056;2024-03-02T03:21:07;100059.40;;;7.10
67353;BMP180;54238;52.278;21.056;2024-03-02T03:23:34;100055.60;;;7.10
67353;BMP180;54238;52.278;21.056;2024-03-02T03:26:04;100055.00;;;7.08
67353;BMP180;54238;52.278;21.056;2024-03-02T03:28:31;100052.60;;;7.10
67353;BMP180;54238;52.278;21.056;2024-03-02T03:31:03;100050.40;;;7.02
67353;BMP180;54238;52.278;21.056;2024-03-02T03:33:35;100055.80;;;7.00
67353;BMP180;54238;52.278;21.056;2024-03-02T03:36:04;100054.80;;;7.00
67353;BMP180;54238;52.278;21.056;2024-03-02T03:38:34;100054.20;;;7.00
67353;BMP180;54238;52.278;21.056;2024-03-02T03:41:05;100054.80;;;7.00
67353;BMP180;54238;52.278;21.056;2024-03-02T03:43:32;100059.00;;;6.90
67353;BMP180;54238;52.278;21.056;2024-03-02T03:46:01;100059.00;;;6.90
67353;BMP180;54238;52.278;21.056;2024-03-02T03:48:29;100059.40;;;6.90
67353;BMP180;54238;52.278;21.056;2024-03-02T03:50:57;100064.40;;;6.90
67353;BMP180;54238;52.278;21.056;2024-03-02T03:53:24;100063.00;;;6.90
67353;BMP180;54238;52.278;21.056;2024-03-02T03:55:51;100055.60;;;6.90
67353;BMP180;54238;52.278;21.056;2024-03-02T03:58:23;100051.80;;;6.90
67353;BMP180;54238;52.278;21.056;2024-03-02T04:00:53;100052.80;;;6.90
67353;BMP180;54238;52.278;21.056;2024-03-02T04:03:20;100048.40;;;6.90
67353;BMP180;54238;52.278;21.056;2024-03-02T04:05:47;100053.20;;;6.90
67353;BMP180;54238;52.278;21.056;2024-03-02T04:08:16;100050.40;;;6.90
67353;BMP180;54238;52.278;21.056;2024-03-02T04:10:46;100049.80;;;6.90
67353;BMP180;54238;52.278;21.056;2024-03-02T04:13:33;100061.00;;;6.88
67353;BMP180;54238;52.278;21.056;2024-03-02T04:16:25;100061.80;;;6.80
67353;BMP180;54238;52.278;21.056;2024-03-02T04:19:20;100059.40;;;6.80
67353;BMP180;54238;52.278;21.056;2024-03-02T04:21:49;100057.80;;;6.80
67353;BMP180;54238;52.278;21.056;2024-03-02T04:24:16;100069.60;;;6.80
67353;BMP180;54238;52.278;21.056;2024-03-02T04:26:43;100062.00;;;6.80
67353;BMP180;54238;52.278;21.056;2024-03-02T04:29:14;100062.40;;;6.80
67353;BMP180;54238;52.278;21.056;2024-03-02T04:31:41;100063.00;;;6.80
67353;BMP180;54238;52.278;21.056;2024-03-02T04:34:15;100068.20;;;6.80
67353;BMP180;54238;52.278;21.056;2024-03-02T04:36:45;100072.60;;;6.80
67353;BMP180;54238;52.278;21.056;2024-03-02T04:39:12;100074.80;;;6.80
67353;BMP180;54238;52.278;21.056;2024-03-02T04:41:38;100065.80;;;6.80
67353;BMP180;54238;52.278;21.056;2024-03-02T04:44:08;100061.80;;;6.80
67353;BMP180;54238;52.278;21.056;2024-03-02T04:46:42;100058.80;;;6.80
67353;BMP180;54238;52.278;21.056;2024-03-02T04:49:09;100061.00;;;6.80
67353;BMP180;54238;52.278;21.056;2024-03-02T04:51:40;100056.80;;;6.80
67353;BMP180;54238;52.278;21.056;2024-03-02T04:54:07;100057.40;;;6.80
67353;BMP180;54238;52.278;21.056;2024-03-02T04:56:34;100052.20;;;6.80
67353;BMP180;54238;52.278;21.056;2024-03-02T04:59:28;100059.60;;;6.80
67353;BMP180;54238;52.278;21.056;2024-03-02T05:01:57;100064.20;;;6.80
67353;BMP180;54238;52.278;21.056;2024-03-02T05:04:25;100058.20;;;6.80
67353;BMP180;54238;52.278;21.056;2024-03-02T05:06:52;100055.00;;;6.80
67353;BMP180;54238;52.278;21.056;2024-03-02T05:09:23;100056.00;;;6.80
67353;BMP180;54238;52.278;21.056;2024-03-02T05:11:52;100058.80;;;6.80
67353;BMP180;54238;52.278;21.056;2024-03-02T05:14:43;100065.60;;;6.80
67353;BMP180;54238;52.278;21.056;2024-03-02T05:17:10;100065.40;;;6.80
67353;BMP180;54238;52.278;21.056;2024-03-02T05:19:42;100076.20;;;6.80
67353;BMP180;54238;52.278;21.056;2024-03-02T05:22:11;100075.00;;;6.80
67353;BMP180;54238;52.278;21.056;2024-03-02T05:24:40;100087.40;;;6.80
67353;BMP180;54238;52.278;21.056;2024-03-02T05:27:07;100093.60;;;6.80
67353;BMP180;54238;52.278;21.056;2024-03-02T05:29:38;100087.40;;;6.80
67353;BMP180;54238;52.278;21.056;2024-03-02T05:32:08;100091.00;;;6.84
67353;BMP180;54238;52.278;21.056;2024-03-02T05:34:35;100093.60;;;6.90
67353;BMP180;54238;52.278;21.056;2024-03-02T05:37:02;100096.20;;;6.90
67353;BMP180;54238;52.278;21.056;2024-03-02T05:39:29;100097.20;;;6.84
67353;BMP180;54238;52.278;21.056;2024-03-02T05:41:56;100099.20;;;6.82
67353;BMP180;54238;52.278;21.056;2024-03-02T05:44:23;100108.40;;;6.84
67353;BMP180;54238;52.278;21.056;2024-03-02T05:46:52;100099.60;;;6.90
67353;BMP180;54238;52.278;21.056;2024-03-02T05:49:27;100100.20;;;6.90
67353;BMP180;54238;52.278;21.056;2024-03-02T05:51:56;100106.80;;;6.90
67353;BMP180;54238;52.278;21.056;2024-03-02T05:54:28;100111.20;;;6.90
67353;BMP180;54238;52.278;21.056;2024-03-02T05:56:58;100115.20;;;6.90
67353;BMP180;54238;52.278;21.056;2024-03-02T05:59:43;100110.00;;;6.90
67353;BMP180;54238;52.278;21.056;2024-03-02T06:02:13;100111.60;;;6.94
67353;BMP180;54238;52.278;21.056;2024-03-02T06:04:44;100115.40;;;7.00
67353;BMP180;54238;52.278;21.056;2024-03-02T06:07:11;100111.20;;;7.00
67353;BMP180;54238;52.278;21.056;2024-03-02T06:09:41;100112.60;;;7.00
67353;BMP180;54238;52.278;21.056;2024-03-02T06:12:09;100116.80;;;7.00
67353;BMP180;54238;52.278;21.056;2024-03-02T06:14:43;100121.40;;;7.00
67353;BMP180;54238;52.278;21.056;2024-03-02T06:17:15;100122.20;;;7.00
67353;BMP180;54238;52.278;21.056;2024-03-02T06:19:44;100124.80;;;7.00
67353;BMP180;54238;52.278;21.056;2024-03-02T06:22:14;100117.40;;;7.10
67353;BMP180;54238;52.278;21.056;2024-03-02T06:24:43;100124.20;;;7.10
67353;BMP180;54238;52.278;21.056;2024-03-02T06:27:15;100126.80;;;7.10
67353;BMP180;54238;52.278;21.056;2024-03-02T06:29:42;100124.40;;;7.12
67353;BMP180;54238;52.278;21.056;2024-03-02T06:32:12;100123.80;;;7.20
67353;BMP180;54238;52.278;21.056;2024-03-02T06:34:41;100120.20;;;7.20
67353;BMP180;54238;52.278;21.056;2024-03-02T06:37:13;100123.60;;;7.26
67353;BMP180;54238;52.278;21.056;2024-03-02T06:39:40;100131.40;;;7.30
67353;BMP180;54238;52.278;21.056;2024-03-02T06:42:10;100136.00;;;7.30
67353;BMP180;54238;52.278;21.056;2024-03-02T06:44:37;100135.80;;;7.30
67353;BMP180;54238;52.278;21.056;2024-03-02T06:47:07;100144.40;;;7.40
67353;BMP180;54238;52.278;21.056;2024-03-02T06:49:34;100142.00;;;7.40
67353;BMP180;54238;52.278;21.056;2024-03-02T06:52:02;100141.00;;;7.40
67353;BMP180;54238;52.278;21.056;2024-03-02T06:54:33;100139.60;;;7.40
67353;BMP180;54238;52.278;21.056;2024-03-02T06:57:03;100144.20;;;7.40
67353;BMP180;54238;52.278;21.056;2024-03-02T06:59:32;100141.80;;;7.50
67353;BMP180;54238;52.278;21.056;2024-03-02T07:02:00;100148.40;;;7.50
67353;BMP180;54238;52.278;21.056;2024-03-02T07:04:28;100149.40;;;7.50
67353;BMP180;54238;52.278;21.056;2024-03-02T07:07:00;100147.00;;;7.50
67353;BMP180;54238;52.278;21.056;2024-03-02T07:09:32;100143.80;;;7.60
67353;BMP180;54238;52.278;21.056;2024-03-02T07:12:04;100143.80;;;7.60
67353;BMP180;54238;52.278;21.056;2024-03-02T07:14:37;100148.60;;;7.60
67353;BMP180;54238;52.278;21.056;2024-03-02T07:17:38;100142.60;;;7.70
67353;BMP180;54238;52.278;21.056;2024-03-02T07:20:06;100149.60;;;7.70
67353;BMP180;54238;52.278;21.056;2024-03-02T07:22:35;100148.20;;;7.70
67353;BMP180;54238;52.278;21.056;2024-03-02T07:25:09;100145.20;;;7.80
67353;BMP180;54238;52.278;21.056;2024-03-02T07:27:36;100146.20;;;7.80
67353;BMP180;54238;52.278;21.056;2024-03-02T07:30:06;100145.80;;;7.82
67353;BMP180;54238;52.278;21.056;2024-03-02T07:32:34;100145.60;;;7.90
67353;BMP180;54238;52.278;21.056;2024-03-02T07:35:01;100151.40;;;7.90
67353;BMP180;54238;52.278;21.056;2024-03-02T07:37:33;100149.80;;;7.90
67353;BMP180;54238;52.278;21.056;2024-03-02T07:40:00;100154.40;;;7.90
67353;BMP180;54238;52.278;21.056;2024-03-02T07:42:32;100152.80;;;7.90
67353;BMP180;54238;52.278;21.056;2024-03-02T07:45:05;100159.60;;;8.00
67353;BMP180;54238;52.278;21.056;2024-03-02T07:47:35;100156.40;;;8.00
67353;BMP180;54238;52.278;21.056;2024-03-02T07:50:08;100151.20;;;8.00
67353;BMP180;54238;52.278;21.056;2024-03-02T07:52:36;100152.20;;;8.00
67353;BMP180;54238;52.278;21.056;2024-03-02T07:55:03;100150.60;;;8.08
67353;BMP180;54238;52.278;21.056;2024-03-02T07:57:32;100151.60;;;8.10
67353;BMP180;54238;52.278;21.056;2024-03-02T08:00:02;100150.60;;;8.18
67353;BMP180;54238;52.278;21.056;2024-03-02T08:02:33;100154.60;;;8.20
67353;BMP180;54238;52.278;21.056;2024-03-02T08:05:03;100157.80;;;8.20
67353;BMP180;54238;52.278;21.056;2024-03-02T08:07:30;100165.20;;;8.30
67353;BMP180;54238;52.278;21.056;2024-03-02T08:10:00;100171.40;;;8.40
67353;BMP180;54238;52.278;21.056;2024-03-02T08:12:27;100172.60;;;8.40
67353;BMP180;54238;52.278;21.056;2024-03-02T08:14:59;100170.20;;;8.50
67353;BMP180;54238;52.278;21.056;2024-03-02T08:17:26;100176.00;;;8.56
67353;BMP180;54238;52.278;21.056;2024-03-02T08:19:53;100180.40;;;8.60
67353;BMP180;54238;52.278;21.056;2024-03-02T08:22:21;100186.80;;;8.60
67353;BMP180;54238;52.278;21.056;2024-03-02T08:24:51;100178.80;;;8.70
67353;BMP180;54238;52.278;21.056;2024-03-02T08:27:22;100172.60;;;8.70
67353;BMP180;54238;52.278;21.056;2024-03-02T08:29:49;100177.00;;;8.80
67353;BMP180;54238;52.278;21.056;2024-03-02T08:32:16;100178.80;;;8.90
67353;BMP180;54238;52.278;21.056;2024-03-02T08:34:48;100176.80;;;9.00
67353;BMP180;54238;52.278;21.056;2024-03-02T08:37:15;100172.60;;;9.10
67353;BMP180;54238;52.278;21.056;2024-03-02T08:39:45;100172.20;;;9.10
67353;BMP180;54238;52.278;21.056;2024-03-02T08:42:22;100167.60;;;9.10
67353;BMP180;54238;52.278;21.056;2024-03-02T08:44:52;100178.00;;;9.20
67353;BMP180;54238;52.278;21.056;2024-03-02T08:47:19;100185.40;;;9.30
67353;BMP180;54238;52.278;21.056;2024-03-02T08:49:46;100192.60;;;9.30
67353;BMP180;54238;52.278;21.056;2024-03-02T08:52:17;100181.60;;;9.30
67353;BMP180;54238;52.278;21.056;2024-03-02T08:54:49;100190.20;;;9.30
67353;BMP180;54238;52.278;21.056;2024-03-02T08:57:18;100191.80;;;9.30
67353;BMP180;54238;52.278;21.056;2024-03-02T08:59:48;100191.00;;;9.30
67353;BMP180;54238;52.278;21.056;2024-03-02T09:02:22;100187.60;;;9.40
67353;BMP180;54238;52.278;21.056;2024-03-02T09:04:54;100191.00;;;9.50
67353;BMP180;54238;52.278;21.056;2024-03-02T09:07:21;100185.60;;;9.50
67353;BMP180;54238;52.278;21.056;2024-03-02T09:09:53;100190.20;;;9.50
67353;BMP180;54238;52.278;21.056;2024-03-02T09:12:20;100191.00;;;9.50
67353;BMP180;54238;52.278;21.056;2024-03-02T09:14:52;100191.40;;;9.50
67353;BMP180;54238;52.278;21.056;2024-03-02T09:17:23;100189.20;;;9.50
67353;BMP180;54238;52.278;21.056;2024-03-02T09:19:53;100186.20;;;9.50
67353;BMP180;54238;52.278;21.056;2024-03-02T09:22:25;100192.00;;;9.60
67353;BMP180;54238;52.278;21.056;2024-03-02T09:24:52;100187.20;;;9.58
67353;BMP180;54238;52.278;21.056;2024-03-02T09:27:22;100190.40;;;9.60
67353;BMP180;54238;52.278;21.056;2024-03-02T09:29:49;100192.40;;;9.60
67353;BMP180;54238;52.278;21.056;2024-03-02T09:32:19;100196.20;;;9.68
67353;BMP180;54238;52.278;21.056;2024-03-02T09:34:50;100200.80;;;9.70
67353;BMP180;54238;52.278;21.056;2024-03-02T09:37:24;100193.80;;;9.70
67353;BMP180;54238;52.278;21.056;2024-03-02T09:39:56;100201.80;;;9.70
67353;BMP180;54238;52.278;21.056;2024-03-02T09:42:24;100199.80;;;9.70
67353;BMP180;54238;52.278;21.056;2024-03-02T09:44:53;100193.80;;;9.70
67353;BMP180;54238;52.278;21.056;2024-03-02T09:47:23;100193.40;;;9.70
67353;BMP180;54238;52.278;21.056;2024-03-02T09:49:57;100199.40;;;9.70
67353;BMP180;54238;52.278;21.056;2024-03-02T09:52:24;100192.00;;;9.70
67353;BMP180;54238;52.278;21.056;2024-03-02T09:54:51;100187.00;;;9.72
67353;BMP180;54238;52.278;21.056;2024-03-02T09:57:18;100195.80;;;9.72
67353;BMP180;54238;52.278;21.056;2024-03-02T09:59:52;100194.80;;;9.80
67353;BMP180;54238;52.278;21.056;2024-03-02T10:02:21;100198.40;;;9.80
67353;BMP180;54238;52.278;21.056;2024-03-02T10:04:53;100189.40;;;9.90
67353;BMP180;54238;52.278;21.056;2024-03-02T10:07:20;100192.80;;;10.00
67353;BMP180;54238;52.278;21.056;2024-03-02T10:09:48;100186.20;;;10.10
67353;BMP180;54238;52.278;21.056;2024-03-02T10:12:17;100184.80;;;10.20
67353;BMP180;54238;52.278;21.056;2024-03-02T10:14:45;100182.40;;;10.20
67353;BMP180;54238;52.278;21.056;2024-03-02T10:17:20;100179.60;;;10.30
67353;BMP180;54238;52.278;21.056;2024-03-02T10:19:47;100180.60;;;10.36
67353;BMP180;54238;52.278;21.056;2024-03-02T10:22:14;100176.00;;;10.42
67353;BMP180;54238;52.278;21.056;2024-03-02T10:24:44;100174.40;;;10.50
67353;BMP180;54238;52.278;21.056;2024-03-02T10:27:23;100170.40;;;10.50
67353;BMP180;54238;52.278;21.056;2024-03-02T10:29:52;100168.60;;;10.60
67353;BMP180;54238;52.278;21.056;2024-03-02T10:32:22;100170.40;;;10.64
67353;BMP180;54238;52.278;21.056;2024-03-02T10:34:52;100166.60;;;10.72
67353;BMP180;54238;52.278;21.056;2024-03-02T10:37:21;100165.40;;;10.82
67353;BMP180;54238;52.278;21.056;2024-03-02T10:39:53;100167.00;;;10.90
67353;BMP180;54238;52.278;21.056;2024-03-02T10:42:27;100163.20;;;11.08
67353;BMP180;54238;52.278;21.056;2024-03-02T10:44:54;100168.00;;;11.20
67353;BMP180;54238;52.278;21.056;2024-03-02T10:47:24;100167.00;;;11.30
67353;BMP180;54238;52.278;21.056;2024-03-02T10:49:59;100162.00;;;11.50
67353;BMP180;54238;52.278;21.056;2024-03-02T10:52:29;100160.20;;;11.60
67353;BMP180;54238;52.278;21.056;2024-03-02T10:54:59;100157.60;;;11.70
67353;BMP180;54238;52.278;21.056;2024-03-02T10:57:52;100155.20;;;11.80
67353;BMP180;54238;52.278;21.056;2024-03-02T11:00:33;100155.00;;;11.90
67353;BMP180;54238;52.278;21.056;2024-03-02T11:03:08;100152.80;;;11.90
67353;BMP180;54238;52.278;21.056;2024-03-02T11:05:40;100150.20;;;11.90
67353;BMP180;54238;52.278;21.056;2024-03-02T11:08:18;100156.80;;;11.90
67353;BMP180;54238;52.278;21.056;2024-03-02T11:10:57;100151.60;;;11.90
67353;BMP180;54238;52.278;21.056;2024-03-02T11:13:31;100150.60;;;11.90
67353;BMP180;54238;52.278;21.056;2024-03-02T11:16:10;100151.60;;;11.90
67353;BMP180;54238;52.278;21.056;2024-03-02T11:18:42;100157.60;;;11.90
67353;BMP180;54238;52.278;21.056;2024-03-02T11:21:10;100156.20;;;11.90
67353;BMP180;54238;52.278;21.056;2024-03-02T11:23:45;100147.80;;;12.00
67353;BMP180;54238;52.278;21.056;2024-03-02T11:26:23;100148.40;;;12.00
67353;BMP180;54238;52.278;21.056;2024-03-02T11:28:55;100154.60;;;12.04
67353;BMP180;54238;52.278;21.056;2024-03-02T11:32:01;100165.20;;;12.10
67353;BMP180;54238;52.278;21.056;2024-03-02T11:34:38;100153.00;;;12.20
67353;BMP180;54238;52.278;21.056;2024-03-02T11:37:06;100149.80;;;12.28
67353;BMP180;54238;52.278;21.056;2024-03-02T11:39:38;100151.20;;;12.40
67353;BMP180;54238;52.278;21.056;2024-03-02T11:42:11;100150.40;;;12.50
67353;BMP180;54238;52.278;21.056;2024-03-02T11:44:45;100148.80;;;12.50
67353;BMP180;54238;52.278;21.056;2024-03-02T11:47:15;100146.40;;;12.60
67353;BMP180;54238;52.278;21.056;2024-03-02T11:49:50;100142.00;;;12.70
67353;BMP180;54238;52.278;21.056;2024-03-02T11:52:22;100140.00;;;12.70
67353;BMP180;54238;52.278;21.056;2024-03-02T11:54:49;100135.80;;;12.78
67353;BMP180;54238;52.278;21.056;2024-03-02T11:57:22;100131.60;;;12.80
67353;BMP180;54238;52.278;21.056;2024-03-02T11:59:59;100124.80;;;12.90
67353;BMP180;54238;52.278;21.056;2024-03-02T12:02:29;100117.60;;;12.90
67353;BMP180;54238;52.278;21.056;2024-03-02T12:05:02;100119.20;;;12.90
67353;BMP180;54238;52.278;21.056;2024-03-02T12:07:34;100119.60;;;13.00
67353;BMP180;54238;52.278;21.056;2024-03-02T12:10:04;100116.00;;;13.00
67353;BMP180;54238;52.278;21.056;2024-03-02T12:12:37;100117.80;;;13.08
67353;BMP180;54238;52.278;21.056;2024-03-02T12:15:05;100121.60;;;13.10
67353;BMP180;54238;52.278;21.056;2024-03-02T12:17:33;100132.40;;;13.20
67353;BMP180;54238;52.278;21.056;2024-03-02T12:20:05;100119.00;;;13.30
67353;BMP180;54238;52.278;21.056;2024-03-02T12:22:37;100119.20;;;13.40
67353;BMP180;54238;52.278;21.056;2024-03-02T12:25:04;100119.80;;;13.50
67353;BMP180;54238;52.278;21.056;2024-03-02T12:27:34;100130.60;;;13.60
67353;BMP180;54238;52.278;21.056;2024-03-02T12:30:08;100136.80;;;13.70
67353;BMP180;54238;52.278;21.056;2024-03-02T12:32:41;100131.80;;;13.80
67353;BMP180;54238;52.278;21.056;2024-03-02T12:35:13;100135.20;;;13.80
67353;BMP180;54238;52.278;21.056;2024-03-02T12:37:45;100134.40;;;13.90
67353;BMP180;54238;52.278;21.056;2024-03-02T12:40:22;100138.40;;;13.80
67353;BMP180;54238;52.278;21.056;2024-03-02T12:42:50;100137.40;;;13.90
67353;BMP180;54238;52.278;21.056;2024-03-02T12:45:22;100137.40;;;13.90
67353;BMP180;54238;52.278;21.056;2024-03-02T12:47:52;100136.60;;;13.88
67353;BMP180;54238;52.278;21.056;2024-03-02T12:50:23;100138.40;;;13.82
67353;BMP180;54238;52.278;21.056;2024-03-02T12:52:55;100140.00;;;13.80
67353;BMP180;54238;52.278;21.056;2024-03-02T12:55:28;100135.60;;;13.78
67353;BMP180;54238;52.278;21.056;2024-03-02T12:57:59;100130.00;;;13.70
67353;BMP180;54238;52.278;21.056;2024-03-02T13:00:29;100137.00;;;13.70
67353;BMP180;54238;52.278;21.056;2024-03-02T13:02:59;100130.40;;;13.70
67353;BMP180;54238;52.278;21.056;2024-03-02T13:05:35;100130.40;;;13.60
67353;BMP180;54238;52.278;21.056;2024-03-02T13:08:02;100129.80;;;13.50
67353;BMP180;54238;52.278;21.056;2024-03-02T13:10:33;100130.40;;;13.50
67353;BMP180;54238;52.278;21.056;2024-03-02T13:13:03;100125.40;;;13.50
67353;BMP180;54238;52.278;21.056;2024-03-02T13:15:33;100135.60;;;13.40
67353;BMP180;54238;52.278;21.056;2024-03-02T13:18:02;100134.00;;;13.40
67353;BMP180;54238;52.278;21.056;2024-03-02T13:20:31;100133.60;;;13.40
67353;BMP180;54238;52.278;21.056;2024-03-02T13:22:59;100134.80;;;13.36
67353;BMP180;54238;52.278;21.056;2024-03-02T13:25:28;100134.40;;;13.30
67353;BMP180;54238;52.278;21.056;2024-03-02T13:27:55;100137.60;;;13.20
67353;BMP180;54238;52.278;21.056;2024-03-02T13:30:22;100135.20;;;13.20
67353;BMP180;54238;52.278;21.056;2024-03-02T13:32:49;100131.80;;;13.20
67353;BMP180;54238;52.278;21.056;2024-03-02T13:35:16;100133.80;;;13.20
67353;BMP180;54238;52.278;21.056;2024-03-02T13:37:45;100142.00;;;13.10
67353;BMP180;54238;52.278;21.056;2024-03-02T13:40:15;100136.60;;;13.00
67353;BMP180;54238;52.278;21.056;2024-03-02T13:42:46;100136.00;;;12.90
67353;BMP180;54238;52.278;21.056;2024-03-02T13:45:17;100137.20;;;12.90
67353;BMP180;54238;52.278;21.056;2024-03-02T13:47:46;100138.20;;;12.80
67353;BMP180;54238;52.278;21.056;2024-03-02T13:50:18;100134.40;;;12.70
67353;BMP180;54238;52.278;21.056;2024-03-02T13:52:47;100137.80;;;12.60
67353;BMP180;54238;52.278;21.056;2024-03-02T13:55:22;100130.40;;;12.50
67353;BMP180;54238;52.278;21.056;2024-03-02T13:57:52;100139.00;;;12.40
67353;BMP180;54238;52.278;21.056;2024-03-02T14:00:19;100136.40;;;12.34
67353;BMP180;54238;52.278;21.056;2024-03-02T14:02:46;100135.80;;;12.28
67353;BMP180;54238;52.278;21.056;2024-03-02T14:05:16;100134.80;;;12.20
67353;BMP180;54238;52.278;21.056;2024-03-02T14:07:43;100130.60;;;12.20
67353;BMP180;54238;52.278;21.056;2024-03-02T14:10:13;100139.40;;;12.10
67353;BMP180;54238;52.278;21.056;2024-03-02T14:12:43;100134.60;;;12.10